Time;durP1;ratioP1;P1;durP2;ratioP2;P2;SDS_P1;SDS_P2;PMS_P1;PMS_P2;Temp;Humidity;BMP_temperature;BMP_pressure;BME280_temperature;BME280_humidity;BME280_pressure;Samples;Min_cycle;Max_cycle;Signal;HPM_P1;HPM_P2
2022/09/22 00:01:55;;;;;;;6.65;4.18;;;16.20;63.50;;;;;;5051896;28;20049;-71
2022/09/22 00:04:22;;;;;;;6.07;3.83;;;16.20;63.50;;;;;;5052262;28;20408;-72
2022/09/22 00:06:50;;;;;;;7.07;4.38;;;16.20;64.10;;;;;;5051850;28;20063;-71
2022/09/22 00:09:20;;;;;;;6.35;3.97;;;16.20;67.00;;;;;;5052148;28;20477;-71
2022/09/22 00:11:48;;;;;;;6.38;4.07;;;15.30;66.20;;;;;;5051968;28;20059;-71
2022/09/22 00:14:16;;;;;;;7.35;3.67;;;16.10;66.50;;;;;;5052150;28;20060;-71
2022/09/22 00:16:44;;;;;;;7.63;3.80;;;16.30;65.40;;;;;;5052034;28;20052;-71
2022/09/22 00:19:12;;;;;;;6.20;3.72;;;16.20;66.70;;;;;;5053661;28;20049;-71
2022/09/22 00:21:39;;;;;;;5.97;3.85;;;16.20;63.50;;;;;;5051711;28;20055;-72
2022/09/22 00:24:06;;;;;;;6.68;4.05;;;16.10;63.50;;;;;;5053112;28;20379;-71
2022/09/22 00:26:35;;;;;;;5.22;3.33;;;16.10;63.50;;;;;;5051469;28;20135;-71
2022/09/22 00:29:02;;;;;;;6.60;3.83;;;16.20;63.50;;;;;;5051691;28;20060;-71
2022/09/22 00:31:29;;;;;;;4.80;3.22;;;16.10;63.50;;;;;;5052111;28;20053;-71
2022/09/22 00:33:56;;;;;;;6.05;3.45;;;16.10;63.50;;;;;;5051769;28;20053;-71
2022/09/22 00:36:25;;;;;;;5.30;3.10;;;16.10;63.50;;;;;;5053113;28;20490;-71
2022/09/22 00:38:52;;;;;;;5.60;3.55;;;16.10;63.50;;;;;;5052607;28;20395;-71
2022/09/22 00:41:20;;;;;;;4.68;3.05;;;16.10;63.50;;;;;;5052952;28;20049;-71
2022/09/22 00:43:50;;;;;;;5.72;3.20;;;16.10;63.50;;;;;;5052242;28;20052;-71
2022/09/22 00:46:18;;;;;;;5.85;3.35;;;16.10;63.50;;;;;;5051937;28;20064;-71
2022/09/22 00:48:46;;;;;;;5.90;3.20;;;16.10;63.50;;;;;;5053095;28;20505;-71
2022/09/22 00:51:14;;;;;;;4.95;3.10;;;16.10;63.50;;;;;;5051446;28;20063;-71
2022/09/22 00:53:40;;;;;;;5.07;3.42;;;16.10;63.50;;;;;;5051583;28;20055;-71
2022/09/22 00:56:08;;;;;;;5.80;3.30;;;16.10;63.50;;;;;;5051915;28;20072;-71
2022/09/22 00:58:36;;;;;;;4.88;3.05;;;16.10;63.50;;;;;;5051455;28;20132;-71
2022/09/22 01:01:06;;;;;;;5.75;3.13;;;16.10;63.50;;;;;;5054847;28;20083;-71
2022/09/22 01:03:32;;;;;;;4.05;2.60;;;16.00;63.40;;;;;;5056763;28;20045;-72
2022/09/22 01:06:00;;;;;;;5.43;3.30;;;16.10;63.50;;;;;;5055788;28;20483;-71
2022/09/22 01:08:27;;;;;;;5.32;3.03;;;16.00;63.40;;;;;;5056730;28;20045;-71
2022/09/22 01:10:54;;;;;;;4.55;2.90;;;16.10;63.50;;;;;;5055746;28;20482;-71
2022/09/22 01:13:26;;;;;;;4.28;2.90;;;16.00;63.40;;;;;;5055613;28;20064;-71
2022/09/22 01:16:15;;;;;;;4.18;2.80;;;16.10;63.50;;;;;;5056488;28;20053;-71
2022/09/22 01:18:49;;;;;;;5.55;2.95;;;16.00;63.30;;;;;;5055628;28;20140;-71
2022/09/22 01:21:19;;;;;;;6.20;3.15;;;16.00;63.40;;;;;;5056704;28;20055;-71
2022/09/22 01:24:17;;;;;;;3.20;2.50;;;16.00;63.40;;;;;;5055662;28;20056;-71
2022/09/22 01:27:01;;;;;;;3.95;2.78;;;15.90;65.20;;;;;;5055669;28;20061;-71
2022/09/22 01:29:50;;;;;;;4.53;2.95;;;16.00;63.40;;;;;;5055334;28;20059;-71
2022/09/22 01:32:19;;;;;;;4.30;2.58;;;16.00;63.40;;;;;;5054382;28;20041;-71
2022/09/22 01:34:47;;;;;;;4.72;2.50;;;16.00;63.40;;;;;;5055909;28;20510;-71
2022/09/22 01:37:17;;;;;;;4.05;2.65;;;16.00;63.40;;;;;;5055362;28;20065;-71
2022/09/22 01:39:45;;;;;;;3.80;2.55;;;16.00;63.40;;;;;;5056949;28;20053;-71
2022/09/22 01:42:13;;;;;;;3.92;2.72;;;16.00;63.40;;;;;;5038395;28;20057;-71
2022/09/22 01:44:43;;;;;;;3.42;2.30;;;16.00;63.40;;;;;;5055858;28;20109;-71
2022/09/22 01:47:12;;;;;;;4.22;2.58;;;16.00;63.40;;;;;;5056597;28;20045;-71
2022/09/22 01:49:42;;;;;;;4.50;2.70;;;16.00;63.40;;;;;;5055096;28;20139;-71
2022/09/22 01:52:11;;;;;;;3.80;2.60;;;16.00;63.40;;;;;;5055496;28;20053;-71
2022/09/22 01:54:40;;;;;;;5.25;2.30;;;16.00;63.30;;;;;;5055217;28;20391;-71
2022/09/22 01:57:11;;;;;;;4.30;2.30;;;15.90;63.30;;;;;;5055280;28;20055;-71
2022/09/22 01:59:38;;;;;;;3.72;2.38;;;15.00;65.50;;;;;;5055855;28;20060;-71
2022/09/22 02:02:07;;;;;;;3.63;2.58;;;15.90;63.30;;;;;;5054642;28;20057;-71
2022/09/22 02:04:35;;;;;;;3.25;2.00;;;15.90;63.30;;;;;;5054916;28;20049;-71
2022/09/22 02:07:05;;;;;;;4.03;2.42;;;15.90;63.30;;;;;;5054895;28;20057;-72
2022/09/22 02:09:33;;;;;;;4.22;2.42;;;15.90;63.20;;;;;;5055967;28;20055;-71
2022/09/22 02:12:00;;;;;;;3.00;2.20;;;15.90;63.30;;;;;;5055442;28;20049;-71
2022/09/22 02:14:27;;;;;;;3.35;2.20;;;15.90;63.20;;;;;;5055593;28;20049;-71
2022/09/22 02:16:53;;;;;;;4.35;2.50;;;15.90;63.20;;;;;;5055924;28;20059;-71
2022/09/22 02:19:22;;;;;;;3.33;2.00;;;15.90;63.30;;;;;;5054870;28;20059;-71
2022/09/22 02:21:49;;;;;;;3.78;1.98;;;15.90;63.20;;;;;;5053919;28;20384;-71
2022/09/22 02:24:31;;;;;;;2.85;2.03;;;15.90;63.20;;;;;;5054491;28;20059;-71
2022/09/22 02:26:58;;;;;;;3.40;2.17;;;15.90;63.20;;;;;;5055407;28;20048;-71
2022/09/22 02:29:25;;;;;;;2.97;2.05;;;15.90;63.30;;;;;;5054561;28;20494;-71
2022/09/22 02:31:51;;;;;;;3.33;2.20;;;15.90;63.20;;;;;;5054515;28;20136;-71
2022/09/22 02:34:18;;;;;;;3.22;2.08;;;15.80;63.20;;;;;;5054291;28;20409;-71
2022/09/22 02:36:50;;;;;;;4.13;2.10;;;15.00;64.80;;;;;;5054104;28;20099;-71
2022/09/22 02:39:19;;;;;;;3.13;1.90;;;15.80;63.20;;;;;;5054397;28;20064;-71
2022/09/22 02:41:56;;;;;;;3.45;1.90;;;15.80;63.20;;;;;;5054317;28;20057;-71
2022/09/22 02:44:25;;;;;;;3.35;1.92;;;15.90;63.20;;;;;;5054231;28;20609;-71
2022/09/22 02:46:55;;;;;;;4.55;2.20;;;15.80;63.20;;;;;;5054313;28;20048;-71
2022/09/22 02:49:21;;;;;;;2.85;1.95;;;15.80;63.20;;;;;;5055806;28;20045;-71
2022/09/22 02:51:48;;;;;;;3.55;2.00;;;15.80;63.10;;;;;;5054195;28;20513;-71
2022/09/22 02:54:15;;;;;;;2.33;1.70;;;15.90;66.20;;;;;;5054025;28;20052;-71
2022/09/22 02:56:42;;;;;;;3.20;1.73;;;16.20;65.10;;;;;;5055319;28;20053;-71
2022/09/22 02:59:10;;;;;;;2.25;1.67;;;15.80;63.10;;;;;;5053157;28;20057;-72
2022/09/22 03:01:37;;;;;;;2.85;2.03;;;15.80;63.10;;;;;;5053204;28;20053;-72
2022/09/22 03:04:04;;;;;;;2.85;2.00;;;15.80;63.10;;;;;;5053317;28;20292;-72
2022/09/22 03:06:30;;;;;;;2.35;1.60;;;15.70;64.80;;;;;;5054453;28;20048;-72
2022/09/22 03:08:57;;;;;;;2.55;1.88;;;15.80;63.10;;;;;;5054170;28;20041;-72
2022/09/22 03:11:24;;;;;;;3.17;1.85;;;15.80;63.10;;;;;;5053067;28;20053;-72
2022/09/22 03:13:51;;;;;;;3.78;1.77;;;15.80;63.10;;;;;;5053113;28;20110;-72
2022/09/22 03:16:19;;;;;;;2.75;1.60;;;15.80;63.10;;;;;;5053478;28;20063;-73
2022/09/22 03:18:46;;;;;;;2.40;1.80;;;15.70;63.00;;;;;;5053314;28;20061;-72
2022/09/22 03:21:13;;;;;;;2.05;1.50;;;15.70;63.00;;;;;;5052499;28;20059;-72
2022/09/22 03:23:39;;;;;;;2.45;1.83;;;15.80;63.00;;;;;;5053363;28;20059;-72
2022/09/22 03:26:06;;;;;;;2.20;1.60;;;15.70;63.00;;;;;;5053143;28;20643;-72
2022/09/22 03:28:33;;;;;;;3.10;1.65;;;15.70;63.00;;;;;;5052445;28;20049;-72
2022/09/22 03:30:59;;;;;;;2.20;1.77;;;15.70;63.00;;;;;;5052558;28;20049;-72
2022/09/22 03:33:27;;;;;;;2.40;1.60;;;15.80;66.60;;;;;;5053953;28;20405;-72
2022/09/22 03:35:54;;;;;;;2.35;1.70;;;16.10;66.60;;;;;;5052766;28;20059;-72
2022/09/22 03:38:21;;;;;;;2.10;1.40;;;15.70;63.00;;;;;;5052821;28;20144;-72
2022/09/22 03:40:51;;;;;;;2.13;1.48;;;15.70;62.90;;;;;;5052413;28;20056;-72
2022/09/22 03:43:18;;;;;;;2.33;1.60;;;15.70;62.90;;;;;;5053186;28;20049;-71
2022/09/22 03:45:44;;;;;;;2.05;1.48;;;16.90;67.00;;;;;;5051897;28;20053;-71
2022/09/22 03:48:11;;;;;;;2.78;1.65;;;15.70;62.90;;;;;;5052829;28;20405;-71
2022/09/22 03:50:39;;;;;;;2.17;1.40;;;15.70;62.90;;;;;;5051258;28;20049;-71
2022/09/22 03:53:06;;;;;;;2.00;1.40;;;15.70;62.90;;;;;;5051689;28;20053;-71
2022/09/22 03:55:33;;;;;;;2.17;1.58;;;15.70;62.90;;;;;;5051583;28;20052;-71
2022/09/22 03:58:00;;;;;;;1.65;1.45;;;15.70;62.90;;;;;;5051511;28;20049;-70
2022/09/22 04:00:27;;;;;;;3.15;1.65;;;15.70;62.90;;;;;;5051307;28;20052;-71
2022/09/22 04:02:53;;;;;;;1.98;1.40;;;15.70;62.90;;;;;;5051306;28;20561;-71
2022/09/22 04:05:20;;;;;;;1.95;1.40;;;15.70;66.60;;;;;;5051458;28;20053;-71
2022/09/22 04:07:48;;;;;;;2.90;1.60;;;15.60;62.80;;;;;;5051119;28;20056;-70
2022/09/22 04:10:15;;;;;;;3.08;1.50;;;15.60;62.80;;;;;;5052283;28;20489;-71
2022/09/22 04:12:42;;;;;;;2.13;1.40;;;15.70;62.90;;;;;;5053276;28;20054;-71
2022/09/22 04:15:09;;;;;;;1.40;1.20;;;15.60;62.80;;;;;;5052789;28;20108;-71
2022/09/22 04:17:36;;;;;;;2.03;1.38;;;15.60;62.80;;;;;;5053364;28;20053;-71
2022/09/22 04:20:03;;;;;;;;;;;15.60;62.80;;;;;;5053070;28;20106;-72
2022/09/22 04:22:30;;;;;;;;;;;15.60;63.00;;;;;;5052738;28;19920;-72
2022/09/22 04:24:58;;;;;;;;;;;15.50;63.10;;;;;;5053373;28;20369;-72
2022/09/22 04:27:24;;;;;;;;;;;15.40;63.10;;;;;;5054371;28;19921;-72
2022/09/22 04:29:51;;;;;;;;;;;15.50;63.30;;;;;;5055072;28;19943;-72
2022/09/22 04:32:18;;;;;;;;;;;15.40;63.40;;;;;;5053839;28;19967;-72
2022/09/22 04:34:44;;;;;;;;;;;15.40;63.50;;;;;;5037599;28;19925;-72
2022/09/22 04:37:12;;;;;;;;;;;15.40;63.50;;;;;;5054455;28;19921;-72
2022/09/22 04:39:38;;;;;;;;;;;15.40;63.50;;;;;;5054745;28;19943;-72
2022/09/22 04:42:07;;;;;;;;;;;15.40;63.60;;;;;;5054458;28;19927;-72
2022/09/22 04:44:34;;;;;;;;;;;15.40;63.60;;;;;;5055135;28;19920;-72
2022/09/22 04:47:00;;;;;;;;;;;15.40;63.70;;;;;;5054639;28;19920;-72
2022/09/22 04:49:27;;;;;;;;;;;15.40;63.80;;;;;;5054216;28;19920;-72
2022/09/22 04:51:54;;;;;;;1.30;1.10;;;15.40;63.80;;;;;;5051527;28;19924;-71
2022/09/22 04:54:20;;;;;;;1.65;1.40;;;15.40;66.20;;;;;;5053157;28;20048;-71
2022/09/22 04:56:47;;;;;;;1.40;1.23;;;15.60;64.80;;;;;;5051649;28;20490;-71
2022/09/22 04:59:15;;;;;;;1.55;1.30;;;15.50;63.30;;;;;;5052207;28;20079;-71
2022/09/22 05:01:42;;;;;;;1.60;1.30;;;15.50;63.10;;;;;;5051815;28;20144;-71
2022/09/22 05:04:08;;;;;;;2.50;1.40;;;15.50;62.90;;;;;;5052228;28;20075;-71
2022/09/22 05:06:35;;;;;;;3.33;1.30;;;15.60;62.90;;;;;;5052231;28;20049;-70
2022/09/22 05:09:02;;;;;;;3.00;1.20;;;15.50;62.80;;;;;;5053019;28;20053;-71
2022/09/22 05:11:30;;;;;;;1.80;1.20;;;15.50;62.70;;;;;;5051836;28;20064;-71
2022/09/22 05:13:57;;;;;;;1.73;1.20;;;15.50;66.00;;;;;;5053518;28;20049;-71
2022/09/22 05:16:25;;;;;;;1.98;1.33;;;15.50;62.60;;;;;;5053425;28;20055;-71
2022/09/22 05:18:52;;;;;;;2.15;1.30;;;15.50;62.50;;;;;;5053527;28;20128;-71
2022/09/22 05:21:19;;;;;;;1.25;1.10;;;15.50;62.50;;;;;;5052082;28;20055;-71
2022/09/22 05:23:45;;;;;;;2.13;1.40;;;14.80;66.00;;;;;;5053561;28;20056;-71
2022/09/22 05:26:12;;;;;;;1.90;1.30;;;15.50;62.50;;;;;;5052080;28;20045;-71
2022/09/22 05:28:39;;;;;;;1.60;1.30;;;15.50;62.50;;;;;;5053488;28;20045;-71
2022/09/22 05:31:06;;;;;;;1.75;1.13;;;15.50;62.50;;;;;;5053451;28;20087;-71
2022/09/22 05:33:34;;;;;;;1.20;0.98;;;15.50;62.50;;;;;;5052329;28;20133;-71
2022/09/22 05:36:01;;;;;;;1.63;1.20;;;15.50;62.50;;;;;;5052539;28;20060;-71
2022/09/22 05:38:28;;;;;;;1.40;1.13;;;15.50;62.50;;;;;;5050326;28;20053;-70
2022/09/22 05:40:55;;;;;;;2.92;1.60;;;15.40;62.40;;;;;;5050064;28;20497;-71
2022/09/22 05:43:21;;;;;;;1.75;1.20;;;15.50;62.50;;;;;;5051351;28;20057;-70
2022/09/22 05:45:48;;;;;;;1.40;1.30;;;15.40;62.50;;;;;;5051607;28;20052;-70
2022/09/22 05:48:15;;;;;;;1.38;1.20;;;15.40;62.40;;;;;;5054032;28;20572;-70
2022/09/22 05:50:45;;;;;;;1.30;1.20;;;15.40;62.50;;;;;;5053815;28;20063;-72
2022/09/22 05:53:12;;;;;;;1.45;1.25;;;15.40;62.40;;;;;;5053523;28;20049;-72
2022/09/22 05:55:39;;;;;;;1.40;1.10;;;15.40;62.40;;;;;;5054041;28;20265;-72
2022/09/22 05:58:05;;;;;;;1.67;1.40;;;15.40;62.40;;;;;;5053766;28;20063;-72
2022/09/22 06:00:32;;;;;;;1.45;1.27;;;15.40;62.40;;;;;;5054601;28;20055;-72
2022/09/22 06:02:59;;;;;;;2.80;1.45;;;15.40;62.40;;;;;;5054698;28;20045;-72
2022/09/22 06:05:25;;;;;;;1.83;1.30;;;15.40;62.40;;;;;;5053921;28;20057;-71
2022/09/22 06:08:01;;;;;;;1.98;1.20;;;15.40;62.40;;;;;;5053362;28;20135;-71
2022/09/22 06:10:28;;;;;;;2.10;1.13;;;15.40;62.40;;;;;;5053440;28;20063;-70
2022/09/22 06:12:58;;;;;;;2.90;1.20;;;15.50;66.40;;;;;;5053403;28;20059;-70
2022/09/22 06:15:24;;;;;;;1.92;1.38;;;15.40;62.40;;;;;;5054973;28;20476;-70
2022/09/22 06:17:51;;;;;;;2.33;1.42;;;15.40;62.40;;;;;;5052949;28;20045;-72
2022/09/22 06:20:18;;;;;;;2.40;1.30;;;15.40;62.50;;;;;;5053226;28;20417;-71
2022/09/22 06:22:45;;;;;;;1.90;1.38;;;15.40;62.40;;;;;;5053567;28;20083;-70
2022/09/22 06:25:13;;;;;;;1.85;1.33;;;15.40;62.40;;;;;;5055700;28;20055;-71
2022/09/22 06:27:40;;;;;;;1.83;1.20;;;15.40;62.40;;;;;;5056046;28;20413;-71
2022/09/22 06:30:09;;;;;;;1.25;1.10;;;15.40;62.40;;;;;;5055271;28;20490;-71
2022/09/22 06:32:38;;;;;;;1.60;1.20;;;15.40;62.40;;;;;;5055360;28;20052;-71
2022/09/22 06:35:05;;;;;;;1.58;1.20;;;15.40;62.40;;;;;;5056468;28;20111;-71
2022/09/22 06:37:32;;;;;;;2.22;1.30;;;15.40;62.40;;;;;;5056076;28;20430;-71
2022/09/22 06:39:59;;;;;;;1.92;1.00;;;15.40;62.40;;;;;;5055099;28;20057;-71
2022/09/22 06:42:27;;;;;;;1.42;1.20;;;15.30;65.90;;;;;;5055018;28;20056;-71
2022/09/22 06:44:54;;;;;;;1.45;1.20;;;15.20;65.80;;;;;;5056013;28;20071;-72
2022/09/22 06:47:20;;;;;;;1.58;1.05;;;15.40;62.40;;;;;;5055984;28;20051;-72
2022/09/22 06:49:47;;;;;;;1.20;1.10;;;15.40;62.40;;;;;;5055192;28;20063;-71
2022/09/22 06:52:14;;;;;;;1.52;1.15;;;15.30;65.50;;;;;;5055645;28;20517;-71
2022/09/22 06:54:40;;;;;;;1.40;1.10;;;15.40;62.40;;;;;;5056047;28;20053;-71
2022/09/22 06:57:07;;;;;;;2.45;1.27;;;15.40;62.40;;;;;;5053792;28;20139;-70
2022/09/22 06:59:37;;;;;;;2.20;1.15;;;15.30;65.90;;;;;;5052699;28;20591;-70
2022/09/22 07:02:06;;;;;;;2.50;1.33;;;15.40;62.40;;;;;;5052398;28;20418;-71
2022/09/22 07:04:33;;;;;;;1.35;1.10;;;15.40;62.40;;;;;;5052443;28;20063;-72
2022/09/22 07:06:59;;;;;;;2.00;1.30;;;15.40;62.40;;;;;;5052507;28;20075;-71
2022/09/22 07:09:26;;;;;;;1.58;1.35;;;16.50;66.20;;;;;;5052771;28;20064;-71
2022/09/22 07:11:53;;;;;;;1.98;1.33;;;15.30;62.40;;;;;;5053604;28;20115;-72
2022/09/22 07:14:21;;;;;;;2.20;1.42;;;15.30;62.40;;;;;;5054944;28;20052;-72
2022/09/22 07:16:51;;;;;;;1.30;1.20;;;15.30;64.50;;;;;;5053597;28;20481;-72
2022/09/22 07:19:18;;;;;;;1.48;1.20;;;15.40;62.40;;;;;;5053504;28;20052;-72
2022/09/22 07:21:46;;;;;;;1.50;1.20;;;15.30;62.40;;;;;;5053033;28;20133;-72
2022/09/22 07:24:13;;;;;;;2.03;1.40;;;15.40;62.40;;;;;;5053542;28;20056;-72
2022/09/22 07:26:40;;;;;;;2.33;1.30;;;15.30;64.40;;;;;;5054464;28;20056;-71
2022/09/22 07:29:10;;;;;;;1.75;1.40;;;15.40;65.90;;;;;;5054965;28;20055;-71
2022/09/22 07:31:37;;;;;;;2.13;1.30;;;15.00;65.10;;;;;;5054353;28;20056;-72
2022/09/22 07:34:05;;;;;;;2.35;1.45;;;15.30;62.40;;;;;;5054082;28;20401;-71
2022/09/22 07:36:32;;;;;;;1.92;1.40;;;15.20;64.30;;;;;;5052986;28;20053;-71
2022/09/22 07:39:03;;;;;;;1.73;1.20;;;15.40;62.50;;;;;;5053486;28;20053;-72
2022/09/22 07:41:30;;;;;;;1.77;1.33;;;15.40;62.40;;;;;;5052947;28;20132;-72
2022/09/22 07:45:11;;;;;;;2.00;1.20;;;15.30;65.80;;;;;;5052812;28;20049;-72
2022/09/22 07:46:45;;;;;;;1.65;1.27;;;15.30;64.50;;;;;;5052571;28;20099;-72
2022/09/22 07:49:13;;;;;;;1.90;1.25;;;15.40;62.50;;;;;;5053315;28;20636;-72
2022/09/22 07:51:40;;;;;;;2.70;1.70;;;15.40;62.40;;;;;;5053741;28;20044;-72
2022/09/22 07:54:07;;;;;;;1.30;1.20;;;15.40;62.40;;;;;;5052666;28;20052;-71
2022/09/22 07:56:35;;;;;;;2.40;1.38;;;15.50;64.60;;;;;;5051302;28;20064;-72
2022/09/22 07:59:03;;;;;;;1.85;1.30;;;15.40;62.50;;;;;;5051844;28;20135;-70
2022/09/22 08:01:33;;;;;;;1.90;1.35;;;15.40;62.40;;;;;;5051334;28;20502;-71
2022/09/22 08:03:59;;;;;;;1.45;1.25;;;15.40;62.40;;;;;;5051256;28;20057;-70
2022/09/22 08:06:28;;;;;;;1.75;1.42;;;15.40;62.40;;;;;;5051273;28;20063;-72
2022/09/22 08:08:55;;;;;;;2.03;1.42;;;15.40;62.40;;;;;;5050822;28;20067;-72
2022/09/22 08:11:23;;;;;;;1.60;1.27;;;15.30;65.90;;;;;;5051363;28;20142;-70
2022/09/22 08:13:51;;;;;;;2.38;1.50;;;15.40;62.40;;;;;;5051373;28;20056;-70
2022/09/22 08:16:18;;;;;;;1.48;1.17;;;15.40;62.40;;;;;;5051196;28;20056;-70
2022/09/22 08:18:44;;;;;;;1.98;1.15;;;15.40;62.50;;;;;;5051175;28;20060;-71
2022/09/22 08:21:17;;;;;;;1.85;1.40;;;15.40;62.40;;;;;;5050854;28;20486;-70
2022/09/22 08:23:45;;;;;;;2.15;1.33;;;15.40;62.50;;;;;;5051394;28;20100;-70
2022/09/22 08:26:12;;;;;;;1.52;1.10;;;15.40;62.40;;;;;;5050940;28;20053;-70
2022/09/22 08:28:38;;;;;;;1.58;1.17;;;15.40;66.20;;;;;;5050977;28;20059;-70
2022/09/22 08:31:10;;;;;;;1.65;1.38;;;15.40;62.50;;;;;;5050903;28;20500;-71
2022/09/22 08:33:39;;;;;;;1.65;1.20;;;15.40;62.50;;;;;;5050865;28;20068;-71
2022/09/22 08:36:06;;;;;;;1.50;1.23;;;15.40;62.50;;;;;;5051009;28;20049;-71
2022/09/22 08:38:33;;;;;;;2.15;1.20;;;15.40;62.50;;;;;;5051274;28;20059;-73
2022/09/22 08:41:14;;;;;;;2.03;1.40;;;15.40;62.50;;;;;;5051788;28;20057;-72
2022/09/22 08:43:45;;;;;;;1.73;1.33;;;15.40;62.40;;;;;;5050959;28;20513;-72
2022/09/22 08:46:12;;;;;;;1.30;1.13;;;15.40;62.50;;;;;;5050949;28;20052;-71
2022/09/22 08:54:10;;;;;;;2.05;1.30;;;15.40;62.50;;;;;;5050925;28;20049;-71
2022/09/22 08:56:40;;;;;;;1.30;1.20;;;15.50;64.70;;;;;;5051779;28;20067;-72
2022/09/22 08:59:08;;;;;;;1.23;1.00;;;15.40;62.50;;;;;;5053387;28;20135;-72
2022/09/22 09:01:42;;;;;;;1.35;1.25;;;15.40;62.50;;;;;;5052078;28;20057;-72
2022/09/22 09:04:43;;;;;;;1.73;1.30;;;15.40;62.50;;;;;;5051889;28;20095;-72
2022/09/22 09:07:14;;;;;;;1.40;1.20;;;15.40;62.50;;;;;;5028385;28;20049;-71
2022/09/22 09:09:46;;;;;;;1.38;1.17;;;15.40;62.50;;;;;;5053628;28;20060;-72
2022/09/22 09:12:22;;;;;;;3.53;1.20;;;15.40;62.50;;;;;;5051714;28;20063;-73
2022/09/22 09:15:18;;;;;;;1.30;1.10;;;15.40;62.50;;;;;;5053279;28;20053;-72
2022/09/22 09:17:46;;;;;;;1.35;1.17;;;15.40;62.40;;;;;;5044671;28;20055;-72
2022/09/22 09:20:16;;;;;;;2.83;1.20;;;15.40;62.60;;;;;;5053741;28;20049;-73
2022/09/22 09:22:46;;;;;;;1.55;1.00;;;15.40;62.50;;;;;;5057173;28;20126;-72
2022/09/22 09:25:17;;;;;;;1.63;1.27;;;15.40;62.50;;;;;;5057091;28;20394;-70
2022/09/22 09:27:46;;;;;;;2.50;1.40;;;15.40;62.50;;;;;;5054496;28;20087;-71
2022/09/22 09:30:16;;;;;;;1.85;1.10;;;15.40;62.50;;;;;;5054139;28;20060;-72
2022/09/22 09:32:46;;;;;;;1.92;1.30;;;15.40;62.50;;;;;;5054370;28;20096;-71
2022/09/22 09:35:13;;;;;;;1.75;1.20;;;15.40;62.50;;;;;;5055674;28;20107;-70
2022/09/22 09:37:40;;;;;;;1.23;1.00;;;15.40;62.50;;;;;;5054470;28;20052;-71
2022/09/22 09:40:14;;;;;;;1.60;1.10;;;15.40;66.10;;;;;;5054062;28;20425;-70
2022/09/22 09:42:40;;;;;;;1.70;1.30;;;15.40;62.50;;;;;;5054235;28;20088;-70
2022/09/22 09:45:12;;;;;;;1.92;1.20;;;15.50;62.50;;;;;;5053901;28;20099;-70
2022/09/22 09:47:46;;;;;;;1.83;1.20;;;15.50;65.70;;;;;;5053857;28;20410;-71
2022/09/22 09:50:13;;;;;;;1.23;1.00;;;15.30;65.30;;;;;;5054255;28;20053;-71
2022/09/22 09:52:41;;;;;;;1.52;1.20;;;15.40;62.50;;;;;;5055695;28;20053;-70
2022/09/22 09:55:17;;;;;;;1.67;1.42;;;15.40;62.50;;;;;;5054188;28;20136;-72
2022/09/22 09:58:01;;;;;;;1.30;1.15;;;15.50;62.50;;;;;;5053911;28;20519;-71
2022/09/22 10:00:31;;;;;;;1.63;1.20;;;15.50;62.40;;;;;;5053644;28;20063;-71
2022/09/22 10:03:04;;;;;;;1.92;1.20;;;15.40;62.50;;;;;;5053875;28;20475;-70
2022/09/22 10:05:36;;;;;;;1.15;1.05;;;16.00;66.30;;;;;;5053729;28;20056;-72
2022/09/22 10:08:04;;;;;;;1.40;1.10;;;15.50;62.50;;;;;;5054609;28;20083;-72
2022/09/22 10:10:32;;;;;;;1.73;1.40;;;15.50;62.50;;;;;;5053399;28;20056;-72
2022/09/22 10:13:23;;;;;;;1.27;1.10;;;15.50;62.50;;;;;;5053641;28;20053;-72
2022/09/22 10:16:05;;;;;;;1.10;1.00;;;15.50;62.40;;;;;;5054551;28;20055;-72
2022/09/22 10:18:39;;;;;;;1.50;1.00;;;15.50;62.40;;;;;;5053436;28;20063;-72
2022/09/22 10:21:06;;;;;;;1.58;1.20;;;15.50;62.40;;;;;;5053388;28;20076;-71
2022/09/22 10:23:33;;;;;;;1.60;1.25;;;15.50;62.50;;;;;;5054689;28;20052;-71
2022/09/22 10:26:14;;;;;;;1.40;1.23;;;15.50;62.40;;;;;;5054852;28;20052;-71
2022/09/22 10:28:41;;;;;;;1.20;1.00;;;15.50;62.30;;;;;;5054685;28;20059;-71
2022/09/22 10:31:18;;;;;;;1.13;1.00;;;15.50;62.40;;;;;;5054401;28;20063;-71
2022/09/22 10:33:54;;;;;;;1.73;1.13;;;15.60;62.40;;;;;;5055274;28;20156;-71
2022/09/22 10:36:24;;;;;;;1.48;1.00;;;15.60;62.30;;;;;;5055302;28;20056;-71
2022/09/22 10:38:51;;;;;;;2.05;1.20;;;15.60;62.40;;;;;;5055496;28;20045;-71
2022/09/22 10:41:25;;;;;;;1.25;1.10;;;15.60;62.30;;;;;;5055445;28;20060;-72
2022/09/22 10:43:53;;;;;;;1.27;1.00;;;15.60;62.30;;;;;;5055783;28;20136;-71
2022/09/22 10:46:32;;;;;;;1.10;1.00;;;15.70;62.30;;;;;;5055833;28;20045;-72
2022/09/22 10:49:04;;;;;;;1.15;1.02;;;15.70;62.20;;;;;;5054727;28;20057;-71
2022/09/22 10:51:37;;;;;;;1.50;1.10;;;15.50;65.10;;;;;;5053105;28;20139;-70
2022/09/22 10:54:23;;;;;;;1.10;1.00;;;15.80;62.20;;;;;;5052950;28;20379;-71
2022/09/22 10:56:52;;;;;;;1.17;1.00;;;14.90;64.70;;;;;;5052593;28;20057;-70
2022/09/22 10:59:44;;;;;;;1.00;0.90;;;15.80;62.10;;;;;;5053800;28;20060;-70
2022/09/22 11:02:50;;;;;;;1.27;1.05;;;15.90;62.10;;;;;;5052496;28;20076;-70
2022/09/22 11:14:04;;;;;;;1.15;1.05;;;16.10;61.90;;;;;;5052554;28;20486;-71
2022/09/22 11:16:34;;;;;;;;;;;16.10;61.90;;;;;;5052845;28;20063;-70
2022/09/22 11:19:17;;;;;;;1.20;1.10;;;16.10;62.50;;;;;;5052365;28;19924;-71
2022/09/22 11:21:51;;;;;;;2.78;1.23;;;16.10;65.50;;;;;;5051930;28;20056;-71
2022/09/22 11:24:30;;;;;;;1.70;1.05;;;15.40;64.40;;;;;;5052305;28;20060;-70
2022/09/22 11:26:57;;;;;;;1.10;1.00;;;16.20;61.80;;;;;;5053683;28;20055;-71
2022/09/22 11:29:52;;;;;;;1.38;0.95;;;16.10;64.80;;;;;;5053808;28;20057;-71
2022/09/22 11:32:30;;;;;;;1.50;1.00;;;16.20;61.70;;;;;;5054084;28;20051;-71
2022/09/22 11:35:22;;;;;;;0.82;0.80;;;16.20;61.70;;;;;;5054371;28;20052;-72
2022/09/22 11:37:53;;;;;;;1.10;0.90;;;16.20;61.70;;;;;;5052466;28;20070;-72
2022/09/22 11:40:27;;;;;;;1.13;1.00;;;16.20;61.70;;;;;;5053415;28;20053;-72
2022/09/22 11:42:55;;;;;;;0.80;0.80;;;16.20;61.60;;;;;;5053724;28;20107;-72
2022/09/22 11:45:34;;;;;;;1.73;1.20;;;16.30;61.70;;;;;;5053452;28;20059;-72
2022/09/22 11:48:05;;;;;;;0.93;0.93;;;16.30;61.60;;;;;;5053082;28;20053;-71
2022/09/22 11:50:42;;;;;;;1.30;1.10;;;16.30;61.60;;;;;;5052701;28;20056;-71
2022/09/22 11:53:23;;;;;;;1.38;1.00;;;16.30;61.60;;;;;;5052776;28;20153;-72
2022/09/22 11:55:55;;;;;;;1.13;0.98;;;16.30;61.60;;;;;;5051930;28;20064;-72
2022/09/22 11:58:24;;;;;;;1.10;1.00;;;16.30;61.50;;;;;;5052777;28;20391;-71
2022/09/22 12:00:52;;;;;;;1.02;0.93;;;16.40;61.60;;;;;;5053528;28;20049;-71
2022/09/22 12:03:22;;;;;;;1.00;0.90;;;16.40;61.60;;;;;;5052886;28;20071;-71
2022/09/22 12:05:51;;;;;;;0.80;0.80;;;16.40;61.60;;;;;;5052532;28;20053;-71
2022/09/22 12:08:19;;;;;;;1.45;1.10;;;16.30;61.50;;;;;;5051182;28;20057;-71
2022/09/22 12:10:48;;;;;;;1.10;1.00;;;16.30;61.50;;;;;;5051741;28;20538;-71
2022/09/22 12:13:16;;;;;;;1.30;1.10;;;16.40;61.60;;;;;;5052125;28;20075;-71
2022/09/22 12:15:57;;;;;;;1.40;0.90;;;16.40;61.50;;;;;;5053474;28;20421;-72
2022/09/22 12:18:26;;;;;;;0.80;0.80;;;16.40;61.50;;;;;;5051275;28;20057;-71
2022/09/22 12:20:58;;;;;;;1.00;0.90;;;16.40;61.50;;;;;;5050600;28;20399;-70
2022/09/22 12:23:38;;;;;;;1.10;1.00;;;16.40;62.00;;;;;;5052587;28;20057;-71
2022/09/22 12:26:07;;;;;;;1.25;0.98;;;16.40;61.40;;;;;;5054088;28;20479;-71
2022/09/22 12:28:36;;;;;;;0.93;0.90;;;16.40;61.40;;;;;;5053679;28;20522;-71
2022/09/22 12:31:05;;;;;;;0.85;0.85;;;16.50;64.00;;;;;;5053071;28;20049;-71
2022/09/22 12:33:32;;;;;;;0.98;0.90;;;16.40;61.40;;;;;;5052560;28;20103;-71
2022/09/22 12:36:00;;;;;;;0.80;0.80;;;15.90;64.20;;;;;;5053479;28;20147;-72
2022/09/22 12:38:29;;;;;;;1.13;0.98;;;16.50;61.30;;;;;;5053723;28;20464;-71
2022/09/22 12:40:57;;;;;;;1.13;1.00;;;16.50;64.80;;;;;;5052302;28;20082;-71
2022/09/22 12:43:23;;;;;;;1.15;0.90;;;16.50;61.30;;;;;;5052694;28;20443;-71
2022/09/22 12:45:51;;;;;;;0.80;0.80;;;16.50;61.30;;;;;;5051735;28;20055;-71
2022/09/22 12:48:20;;;;;;;0.90;0.80;;;16.50;61.30;;;;;;5052562;28;20059;-71
2022/09/22 12:50:47;;;;;;;0.90;0.80;;;16.50;61.30;;;;;;5051990;28;20069;-71
2022/09/22 12:53:26;;;;;;;1.13;0.95;;;16.50;61.30;;;;;;5052240;28;20144;-71
2022/09/22 12:55:52;;;;;;;2.08;0.93;;;16.50;61.30;;;;;;5052437;28;20570;-71
2022/09/22 12:58:38;;;;;;;1.00;0.90;;;16.50;61.90;;;;;;5052928;28;20053;-71
2022/09/22 13:01:33;;;;;;;0.98;0.77;;;16.50;61.30;;;;;;5051799;28;20075;-71
2022/09/22 13:04:18;;;;;;;0.82;0.80;;;16.50;61.40;;;;;;5052533;28;20052;-71
2022/09/22 13:06:55;;;;;;;1.02;0.90;;;16.40;62.90;;;;;;5052013;28;20493;-71
2022/09/22 13:09:24;;;;;;;0.80;0.80;;;16.50;61.40;;;;;;5053611;28;20405;-72
2022/09/22 13:12:34;;;;;;;1.30;0.90;;;16.50;61.40;;;;;;5051931;28;20099;-71
2022/09/22 13:15:15;;;;;;;1.90;1.10;;;16.50;61.40;;;;;;5037066;28;20063;-70
2022/09/22 13:17:43;;;;;;;0.80;0.80;;;16.50;61.40;;;;;;5052058;28;20057;-71
2022/09/22 13:20:17;;;;;;;0.80;0.80;;;16.50;61.40;;;;;;5051653;28;20059;-71